Hilmar, California
Current Conditions -  °F | °C
As of 10:35 PM on Saturday 25 Oct 2014 (Local Time) from KMER Reporting Station
Clear Clear  
Wind Chill: 55°   Ceiling: Unl
Heat Index: 55°   Visibility: 10mi
Dew Point: 55°   Wind: 7mph
Humidity: 100%   Direction: 350°N
Pressure: 30.11"   Gusts: NA
Location:  37.41°N, 120.85°W
Report Text: KMER 260535Z AUTO 35006KT 10SM CLR 13/13 A3011 RMK AO1
Loading
Personal Weather Stations






























Interactive Weather Map
Tropical Storm Tracking
New forecast layout! Learn more

10-Day Weather Forecast

Advertisements
Track Severe Weather on mobile